sensor_id;sensor_type;location;lat;lon;timestamp;P1;durP1;ratioP1;P2;durP2;ratioP2
22131;SDS011;11232;51.748;19.390;2023-07-08T00:01:13;12.23;;;4.65;;
22131;SDS011;11232;51.748;19.390;2023-07-08T00:03:40;6.80;;;4.38;;
22131;SDS011;11232;51.748;19.390;2023-07-08T00:09:01;7.10;;;4.60;;
22131;SDS011;11232;51.748;19.390;2023-07-08T00:11:28;8.65;;;4.75;;
22131;SDS011;11232;51.748;19.390;2023-07-08T00:13:54;10.05;;;4.95;;
22131;SDS011;11232;51.748;19.390;2023-07-08T00:16:20;10.60;;;5.30;;
22131;SDS011;11232;51.748;19.390;2023-07-08T00:18:46;8.95;;;4.72;;
22131;SDS011;11232;51.748;19.390;2023-07-08T00:21:16;10.52;;;5.22;;
22131;SDS011;11232;51.748;19.390;2023-07-08T00:23:43;8.25;;;4.80;;
22131;SDS011;11232;51.748;19.390;2023-07-08T00:26:11;9.75;;;4.60;;
22131;SDS011;11232;51.748;19.390;2023-07-08T00:28:39;6.60;;;4.43;;
22131;SDS011;11232;51.748;19.390;2023-07-08T00:31:08;11.82;;;5.28;;
22131;SDS011;11232;51.748;19.390;2023-07-08T00:33:34;9.32;;;4.55;;
22131;SDS011;11232;51.748;19.390;2023-07-08T00:36:00;8.98;;;4.80;;
22131;SDS011;11232;51.748;19.390;2023-07-08T00:38:27;11.15;;;5.60;;
22131;SDS011;11232;51.748;19.390;2023-07-08T00:46:01;12.35;;;5.05;;
22131;SDS011;11232;51.748;19.390;2023-07-08T00:48:30;9.05;;;5.18;;
22131;SDS011;11232;51.748;19.390;2023-07-08T00:50:58;6.57;;;4.90;;
22131;SDS011;11232;51.748;19.390;2023-07-08T00:53:31;8.63;;;4.80;;
22131;SDS011;11232;51.748;19.390;2023-07-08T00:55:59;8.25;;;5.38;;
22131;SDS011;11232;51.748;19.390;2023-07-08T00:58:29;12.95;;;7.03;;
22131;SDS011;11232;51.748;19.390;2023-07-08T01:00:56;12.75;;;6.65;;
22131;SDS011;11232;51.748;19.390;2023-07-08T01:03:22;11.50;;;5.40;;
22131;SDS011;11232;51.748;19.390;2023-07-08T01:05:48;10.68;;;6.22;;
22131;SDS011;11232;51.748;19.390;2023-07-08T01:08:15;14.88;;;5.95;;
22131;SDS011;11232;51.748;19.390;2023-07-08T01:10:49;10.70;;;5.90;;
22131;SDS011;11232;51.748;19.390;2023-07-08T01:13:18;12.02;;;6.75;;
22131;SDS011;11232;51.748;19.390;2023-07-08T01:15:45;12.57;;;6.25;;
22131;SDS011;11232;51.748;19.390;2023-07-08T01:18:14;12.35;;;6.20;;
22131;SDS011;11232;51.748;19.390;2023-07-08T01:20:47;10.05;;;6.20;;
22131;SDS011;11232;51.748;19.390;2023-07-08T01:23:13;11.45;;;6.18;;
22131;SDS011;11232;51.748;19.390;2023-07-08T01:25:40;12.10;;;5.53;;
22131;SDS011;11232;51.748;19.390;2023-07-08T01:28:07;10.43;;;6.63;;
22131;SDS011;11232;51.748;19.390;2023-07-08T01:30:33;10.82;;;5.38;;
22131;SDS011;11232;51.748;19.390;2023-07-08T01:33:00;15.60;;;6.80;;
22131;SDS011;11232;51.748;19.390;2023-07-08T01:35:27;8.90;;;6.18;;
22131;SDS011;11232;51.748;19.390;2023-07-08T01:37:54;9.98;;;6.20;;
22131;SDS011;11232;51.748;19.390;2023-07-08T01:40:23;8.40;;;5.57;;
22131;SDS011;11232;51.748;19.390;2023-07-08T01:42:50;11.35;;;5.78;;
22131;SDS011;11232;51.748;19.390;2023-07-08T01:45:17;9.00;;;6.03;;
22131;SDS011;11232;51.748;19.390;2023-07-08T01:47:44;13.70;;;6.03;;
22131;SDS011;11232;51.748;19.390;2023-07-08T01:50:12;8.73;;;5.15;;
22131;SDS011;11232;51.748;19.390;2023-07-08T01:52:38;9.00;;;5.63;;
22131;SDS011;11232;51.748;19.390;2023-07-08T01:55:04;9.38;;;6.07;;
22131;SDS011;11232;51.748;19.390;2023-07-08T01:57:31;11.52;;;6.57;;
22131;SDS011;11232;51.748;19.390;2023-07-08T01:59:57;12.43;;;6.25;;
22131;SDS011;11232;51.748;19.390;2023-07-08T02:02:23;8.80;;;5.25;;
22131;SDS011;11232;51.748;19.390;2023-07-08T02:04:49;9.32;;;5.32;;
22131;SDS011;11232;51.748;19.390;2023-07-08T02:07:15;12.18;;;6.03;;
22131;SDS011;11232;51.748;19.390;2023-07-08T02:09:41;9.63;;;5.65;;
22131;SDS011;11232;51.748;19.390;2023-07-08T02:12:07;15.23;;;6.03;;
22131;SDS011;11232;51.748;19.390;2023-07-08T02:14:33;16.63;;;6.95;;
22131;SDS011;11232;51.748;19.390;2023-07-08T02:16:59;13.45;;;7.65;;
22131;SDS011;11232;51.748;19.390;2023-07-08T02:19:25;12.35;;;7.43;;
22131;SDS011;11232;51.748;19.390;2023-07-08T02:21:52;14.25;;;6.93;;
22131;SDS011;11232;51.748;19.390;2023-07-08T02:24:18;10.23;;;6.15;;
22131;SDS011;11232;51.748;19.390;2023-07-08T02:26:44;12.52;;;6.32;;
22131;SDS011;11232;51.748;19.390;2023-07-08T02:29:12;11.00;;;6.25;;
22131;SDS011;11232;51.748;19.390;2023-07-08T02:31:38;12.20;;;6.55;;
22131;SDS011;11232;51.748;19.390;2023-07-08T02:34:04;13.07;;;6.38;;
22131;SDS011;11232;51.748;19.390;2023-07-08T02:36:30;9.75;;;6.03;;
22131;SDS011;11232;51.748;19.390;2023-07-08T02:38:56;9.50;;;6.10;;
22131;SDS011;11232;51.748;19.390;2023-07-08T02:41:22;11.02;;;6.03;;
22131;SDS011;11232;51.748;19.390;2023-07-08T02:43:48;12.98;;;6.43;;
22131;SDS011;11232;51.748;19.390;2023-07-08T02:46:14;9.80;;;6.60;;
22131;SDS011;11232;51.748;19.390;2023-07-08T02:48:40;10.55;;;7.13;;
22131;SDS011;11232;51.748;19.390;2023-07-08T02:51:06;14.43;;;6.60;;
22131;SDS011;11232;51.748;19.390;2023-07-08T02:53:34;13.40;;;6.55;;
22131;SDS011;11232;51.748;19.390;2023-07-08T02:56:00;11.85;;;6.75;;
22131;SDS011;11232;51.748;19.390;2023-07-08T02:58:26;11.63;;;6.93;;
22131;SDS011;11232;51.748;19.390;2023-07-08T03:00:55;12.63;;;7.85;;
22131;SDS011;11232;51.748;19.390;2023-07-08T03:03:23;13.43;;;7.70;;
22131;SDS011;11232;51.748;19.390;2023-07-08T03:05:53;11.10;;;7.70;;
22131;SDS011;11232;51.748;19.390;2023-07-08T03:08:19;15.07;;;7.90;;
22131;SDS011;11232;51.748;19.390;2023-07-08T03:10:47;12.32;;;6.70;;
22131;SDS011;11232;51.748;19.390;2023-07-08T03:13:14;18.58;;;7.63;;
22131;SDS011;11232;51.748;19.390;2023-07-08T03:15:40;10.85;;;7.18;;
22131;SDS011;11232;51.748;19.390;2023-07-08T03:18:06;11.68;;;6.80;;
22131;SDS011;11232;51.748;19.390;2023-07-08T03:20:33;12.32;;;7.20;;
22131;SDS011;11232;51.748;19.390;2023-07-08T03:23:01;11.60;;;7.18;;
22131;SDS011;11232;51.748;19.390;2023-07-08T03:25:27;10.80;;;7.00;;
22131;SDS011;11232;51.748;19.390;2023-07-08T03:27:53;10.13;;;6.53;;
22131;SDS011;11232;51.748;19.390;2023-07-08T03:30:20;13.00;;;6.47;;
22131;SDS011;11232;51.748;19.390;2023-07-08T03:32:46;11.30;;;7.28;;
22131;SDS011;11232;51.748;19.390;2023-07-08T03:35:12;13.23;;;7.32;;
22131;SDS011;11232;51.748;19.390;2023-07-08T03:37:38;11.07;;;7.45;;
22131;SDS011;11232;51.748;19.390;2023-07-08T03:40:04;16.75;;;7.07;;
22131;SDS011;11232;51.748;19.390;2023-07-08T03:42:30;14.20;;;7.30;;
22131;SDS011;11232;51.748;19.390;2023-07-08T03:44:56;18.20;;;8.27;;
22131;SDS011;11232;51.748;19.390;2023-07-08T03:47:22;12.93;;;7.15;;
22131;SDS011;11232;51.748;19.390;2023-07-08T03:49:48;14.65;;;8.23;;
22131;SDS011;11232;51.748;19.390;2023-07-08T03:52:15;13.60;;;7.85;;
22131;SDS011;11232;51.748;19.390;2023-07-08T03:54:41;13.10;;;7.63;;
22131;SDS011;11232;51.748;19.390;2023-07-08T03:57:07;12.52;;;7.57;;
22131;SDS011;11232;51.748;19.390;2023-07-08T03:59:33;19.75;;;8.02;;
22131;SDS011;11232;51.748;19.390;2023-07-08T04:01:59;15.75;;;7.80;;
22131;SDS011;11232;51.748;19.390;2023-07-08T04:04:25;13.70;;;8.25;;
22131;SDS011;11232;51.748;19.390;2023-07-08T04:06:51;15.07;;;7.70;;
22131;SDS011;11232;51.748;19.390;2023-07-08T04:09:18;15.57;;;8.18;;
22131;SDS011;11232;51.748;19.390;2023-07-08T04:11:44;14.32;;;7.63;;
22131;SDS011;11232;51.748;19.390;2023-07-08T04:14:10;15.75;;;8.05;;
22131;SDS011;11232;51.748;19.390;2023-07-08T04:16:52;12.43;;;7.15;;
22131;SDS011;11232;51.748;19.390;2023-07-08T04:19:18;13.82;;;7.68;;
22131;SDS011;11232;51.748;19.390;2023-07-08T04:21:45;13.75;;;7.18;;
22131;SDS011;11232;51.748;19.390;2023-07-08T04:24:11;12.10;;;7.35;;
22131;SDS011;11232;51.748;19.390;2023-07-08T04:26:38;9.68;;;6.50;;
22131;SDS011;11232;51.748;19.390;2023-07-08T04:29:06;14.52;;;7.80;;
22131;SDS011;11232;51.748;19.390;2023-07-08T04:31:32;9.68;;;6.45;;
22131;SDS011;11232;51.748;19.390;2023-07-08T04:33:58;13.45;;;6.90;;
22131;SDS011;11232;51.748;19.390;2023-07-08T04:36:24;10.90;;;6.75;;
22131;SDS011;11232;51.748;19.390;2023-07-08T04:38:51;10.18;;;6.55;;
22131;SDS011;11232;51.748;19.390;2023-07-08T04:41:17;9.68;;;6.32;;
22131;SDS011;11232;51.748;19.390;2023-07-08T04:43:43;10.75;;;6.13;;
22131;SDS011;11232;51.748;19.390;2023-07-08T04:46:14;15.35;;;5.50;;
22131;SDS011;11232;51.748;19.390;2023-07-08T04:48:42;12.90;;;4.55;;
22131;SDS011;11232;51.748;19.390;2023-07-08T04:51:08;8.18;;;5.53;;
22131;SDS011;11232;51.748;19.390;2023-07-08T04:53:34;9.60;;;4.75;;
22131;SDS011;11232;51.748;19.390;2023-07-08T04:56:01;7.85;;;5.30;;
22131;SDS011;11232;51.748;19.390;2023-07-08T04:58:27;7.72;;;4.20;;
22131;SDS011;11232;51.748;19.390;2023-07-08T05:00:52;7.63;;;4.38;;
22131;SDS011;11232;51.748;19.390;2023-07-08T05:03:18;9.65;;;4.53;;
22131;SDS011;11232;51.748;19.390;2023-07-08T05:05:44;7.20;;;3.92;;
22131;SDS011;11232;51.748;19.390;2023-07-08T05:08:11;7.55;;;4.32;;
22131;SDS011;11232;51.748;19.390;2023-07-08T05:10:37;7.68;;;4.40;;
22131;SDS011;11232;51.748;19.390;2023-07-08T05:13:04;7.20;;;3.63;;
22131;SDS011;11232;51.748;19.390;2023-07-08T05:15:30;7.57;;;4.45;;
22131;SDS011;11232;51.748;19.390;2023-07-08T05:17:56;6.75;;;3.97;;
22131;SDS011;11232;51.748;19.390;2023-07-08T05:20:22;6.25;;;3.60;;
22131;SDS011;11232;51.748;19.390;2023-07-08T05:22:48;5.85;;;3.47;;
22131;SDS011;11232;51.748;19.390;2023-07-08T05:25:15;5.25;;;3.58;;
22131;SDS011;11232;51.748;19.390;2023-07-08T05:27:42;6.60;;;3.95;;
22131;SDS011;11232;51.748;19.390;2023-07-08T05:30:08;6.32;;;4.28;;
22131;SDS011;11232;51.748;19.390;2023-07-08T05:32:37;5.82;;;3.80;;
22131;SDS011;11232;51.748;19.390;2023-07-08T05:35:03;7.28;;;3.40;;
22131;SDS011;11232;51.748;19.390;2023-07-08T05:37:29;3.97;;;2.90;;
22131;SDS011;11232;51.748;19.390;2023-07-08T05:39:55;8.15;;;3.70;;
22131;SDS011;11232;51.748;19.390;2023-07-08T05:42:22;7.43;;;3.35;;
22131;SDS011;11232;51.748;19.390;2023-07-08T05:44:48;4.95;;;3.17;;
22131;SDS011;11232;51.748;19.390;2023-07-08T05:47:16;5.50;;;3.50;;
22131;SDS011;11232;51.748;19.390;2023-07-08T05:49:42;5.07;;;3.40;;
22131;SDS011;11232;51.748;19.390;2023-07-08T05:52:08;5.53;;;3.20;;
22131;SDS011;11232;51.748;19.390;2023-07-08T05:54:38;7.43;;;3.65;;
22131;SDS011;11232;51.748;19.390;2023-07-08T05:57:08;6.13;;;4.07;;
22131;SDS011;11232;51.748;19.390;2023-07-08T05:59:35;5.28;;;3.40;;
22131;SDS011;11232;51.748;19.390;2023-07-08T06:02:02;9.68;;;3.33;;
22131;SDS011;11232;51.748;19.390;2023-07-08T06:04:28;6.05;;;3.55;;
22131;SDS011;11232;51.748;19.390;2023-07-08T06:06:54;6.05;;;3.10;;
22131;SDS011;11232;51.748;19.390;2023-07-08T06:09:20;11.85;;;3.45;;
22131;SDS011;11232;51.748;19.390;2023-07-08T06:11:46;5.50;;;3.03;;
22131;SDS011;11232;51.748;19.390;2023-07-08T06:14:12;3.30;;;3.00;;
22131;SDS011;11232;51.748;19.390;2023-07-08T06:16:38;5.28;;;3.08;;
22131;SDS011;11232;51.748;19.390;2023-07-08T06:19:04;3.10;;;2.80;;
22131;SDS011;11232;51.748;19.390;2023-07-08T06:21:30;4.38;;;3.03;;
22131;SDS011;11232;51.748;19.390;2023-07-08T06:23:56;5.30;;;2.65;;
22131;SDS011;11232;51.748;19.390;2023-07-08T06:26:22;4.88;;;3.25;;
22131;SDS011;11232;51.748;19.390;2023-07-08T06:28:48;3.53;;;2.55;;
22131;SDS011;11232;51.748;19.390;2023-07-08T06:31:14;6.38;;;2.95;;
22131;SDS011;11232;51.748;19.390;2023-07-08T06:33:41;3.28;;;2.90;;
22131;SDS011;11232;51.748;19.390;2023-07-08T06:36:07;4.03;;;2.90;;
22131;SDS011;11232;51.748;19.390;2023-07-08T06:38:33;8.50;;;2.83;;
22131;SDS011;11232;51.748;19.390;2023-07-08T06:40:59;6.13;;;3.00;;
22131;SDS011;11232;51.748;19.390;2023-07-08T06:43:25;3.03;;;2.72;;
22131;SDS011;11232;51.748;19.390;2023-07-08T06:45:51;3.10;;;2.78;;
22131;SDS011;11232;51.748;19.390;2023-07-08T06:48:17;4.53;;;2.58;;
22131;SDS011;11232;51.748;19.390;2023-07-08T06:50:46;2.72;;;2.35;;
22131;SDS011;11232;51.748;19.390;2023-07-08T06:53:13;3.67;;;2.13;;
22131;SDS011;11232;51.748;19.390;2023-07-08T06:55:39;2.92;;;2.30;;
22131;SDS011;11232;51.748;19.390;2023-07-08T06:58:05;5.68;;;2.17;;
22131;SDS011;11232;51.748;19.390;2023-07-08T07:00:31;3.47;;;2.22;;
22131;SDS011;11232;51.748;19.390;2023-07-08T07:02:57;2.50;;;2.30;;
22131;SDS011;11232;51.748;19.390;2023-07-08T07:05:23;5.70;;;2.20;;
22131;SDS011;11232;51.748;19.390;2023-07-08T07:07:49;4.30;;;2.03;;
22131;SDS011;11232;51.748;19.390;2023-07-08T07:10:15;2.15;;;1.77;;
22131;SDS011;11232;51.748;19.390;2023-07-08T07:12:41;1.90;;;1.80;;
22131;SDS011;11232;51.748;19.390;2023-07-08T07:15:07;2.97;;;1.92;;
22131;SDS011;11232;51.748;19.390;2023-07-08T07:17:33;2.13;;;1.92;;
22131;SDS011;11232;51.748;19.390;2023-07-08T07:20:00;4.45;;;2.20;;
22131;SDS011;11232;51.748;19.390;2023-07-08T07:22:26;2.00;;;1.90;;
22131;SDS011;11232;51.748;19.390;2023-07-08T07:24:53;5.03;;;2.15;;
22131;SDS011;11232;51.748;19.390;2023-07-08T07:27:19;4.53;;;1.98;;
22131;SDS011;11232;51.748;19.390;2023-07-08T07:29:46;2.80;;;2.13;;
22131;SDS011;11232;51.748;19.390;2023-07-08T07:32:12;3.50;;;1.92;;
22131;SDS011;11232;51.748;19.390;2023-07-08T07:34:39;3.45;;;2.13;;
22131;SDS011;11232;51.748;19.390;2023-07-08T07:37:06;3.78;;;2.08;;
22131;SDS011;11232;51.748;19.390;2023-07-08T07:39:32;2.90;;;1.92;;
22131;SDS011;11232;51.748;19.390;2023-07-08T07:42:00;4.00;;;1.90;;
22131;SDS011;11232;51.748;19.390;2023-07-08T07:44:27;3.58;;;2.10;;
22131;SDS011;11232;51.748;19.390;2023-07-08T07:46:53;4.68;;;2.10;;
22131;SDS011;11232;51.748;19.390;2023-07-08T07:49:19;3.55;;;2.13;;
22131;SDS011;11232;51.748;19.390;2023-07-08T07:51:45;4.50;;;2.17;;
22131;SDS011;11232;51.748;19.390;2023-07-08T07:54:11;3.92;;;1.90;;
22131;SDS011;11232;51.748;19.390;2023-07-08T07:56:37;8.65;;;2.17;;
22131;SDS011;11232;51.748;19.390;2023-07-08T07:59:03;3.78;;;2.30;;
22131;SDS011;11232;51.748;19.390;2023-07-08T08:01:29;2.85;;;2.35;;
22131;SDS011;11232;51.748;19.390;2023-07-08T08:03:55;4.22;;;2.15;;
22131;SDS011;11232;51.748;19.390;2023-07-08T08:06:21;4.40;;;2.10;;
22131;SDS011;11232;51.748;19.390;2023-07-08T08:08:47;2.28;;;2.08;;
22131;SDS011;11232;51.748;19.390;2023-07-08T08:11:14;2.40;;;2.13;;
22131;SDS011;11232;51.748;19.390;2023-07-08T08:13:40;7.80;;;2.20;;
22131;SDS011;11232;51.748;19.390;2023-07-08T08:16:06;4.13;;;2.00;;
22131;SDS011;11232;51.748;19.390;2023-07-08T08:18:32;4.07;;;2.20;;
22131;SDS011;11232;51.748;19.390;2023-07-08T08:20:58;3.63;;;1.90;;
22131;SDS011;11232;51.748;19.390;2023-07-08T08:23:25;2.17;;;1.98;;
22131;SDS011;11232;51.748;19.390;2023-07-08T08:25:51;1.98;;;1.85;;
22131;SDS011;11232;51.748;19.390;2023-07-08T08:28:17;2.25;;;2.05;;
22131;SDS011;11232;51.748;19.390;2023-07-08T08:30:46;4.30;;;1.90;;
22131;SDS011;11232;51.748;19.390;2023-07-08T08:33:12;2.90;;;2.03;;
22131;SDS011;11232;51.748;19.390;2023-07-08T08:35:38;2.42;;;1.80;;
22131;SDS011;11232;51.748;19.390;2023-07-08T08:38:04;2.63;;;2.10;;
22131;SDS011;11232;51.748;19.390;2023-07-08T08:40:30;1.90;;;1.75;;
22131;SDS011;11232;51.748;19.390;2023-07-08T08:42:57;2.10;;;2.00;;
22131;SDS011;11232;51.748;19.390;2023-07-08T08:45:25;2.30;;;1.80;;
22131;SDS011;11232;51.748;19.390;2023-07-08T08:47:54;3.97;;;1.70;;
22131;SDS011;11232;51.748;19.390;2023-07-08T08:52:54;5.40;;;2.03;;
22131;SDS011;11232;51.748;19.390;2023-07-08T08:55:22;2.60;;;1.80;;
22131;SDS011;11232;51.748;19.390;2023-07-08T08:57:53;2.30;;;1.90;;
22131;SDS011;11232;51.748;19.390;2023-07-08T09:00:24;2.20;;;2.00;;
22131;SDS011;11232;51.748;19.390;2023-07-08T09:03:10;5.00;;;1.95;;
22131;SDS011;11232;51.748;19.390;2023-07-08T09:05:38;2.65;;;1.75;;
22131;SDS011;11232;51.748;19.390;2023-07-08T09:10:51;2.00;;;1.80;;
22131;SDS011;11232;51.748;19.390;2023-07-08T09:13:28;1.88;;;1.77;;
22131;SDS011;11232;51.748;19.390;2023-07-08T09:16:02;2.20;;;2.00;;
22131;SDS011;11232;51.748;19.390;2023-07-08T09:18:32;2.38;;;1.75;;
22131;SDS011;11232;51.748;19.390;2023-07-08T09:21:00;3.00;;;2.00;;
22131;SDS011;11232;51.748;19.390;2023-07-08T09:23:29;1.90;;;1.80;;
22131;SDS011;11232;51.748;19.390;2023-07-08T09:25:59;2.78;;;2.50;;
22131;SDS011;11232;51.748;19.390;2023-07-08T09:28:43;2.88;;;2.00;;
22131;SDS011;11232;51.748;19.390;2023-07-08T09:31:43;2.75;;;1.92;;
22131;SDS011;11232;51.748;19.390;2023-07-08T09:36:37;2.05;;;1.95;;
22131;SDS011;11232;51.748;19.390;2023-07-08T09:39:05;3.25;;;1.90;;
22131;SDS011;11232;51.748;19.390;2023-07-08T09:41:35;2.00;;;1.90;;
22131;SDS011;11232;51.748;19.390;2023-07-08T09:44:21;2.03;;;1.73;;
22131;SDS011;11232;51.748;19.390;2023-07-08T09:46:50;4.18;;;1.88;;
22131;SDS011;11232;51.748;19.390;2023-07-08T09:49:18;2.17;;;1.90;;
22131;SDS011;11232;51.748;19.390;2023-07-08T09:51:45;2.30;;;2.05;;
22131;SDS011;11232;51.748;19.390;2023-07-08T09:54:11;3.85;;;2.00;;
22131;SDS011;11232;51.748;19.390;2023-07-08T09:56:41;2.10;;;2.00;;
22131;SDS011;11232;51.748;19.390;2023-07-08T09:59:12;3.28;;;1.92;;
22131;SDS011;11232;51.748;19.390;2023-07-08T10:01:39;4.25;;;2.40;;
22131;SDS011;11232;51.748;19.390;2023-07-08T10:04:05;4.35;;;2.05;;
22131;SDS011;11232;51.748;19.390;2023-07-08T10:06:32;2.50;;;1.95;;
22131;SDS011;11232;51.748;19.390;2023-07-08T10:09:03;3.35;;;1.85;;
22131;SDS011;11232;51.748;19.390;2023-07-08T10:11:33;3.53;;;2.00;;
22131;SDS011;11232;51.748;19.390;2023-07-08T10:14:12;2.15;;;1.80;;
22131;SDS011;11232;51.748;19.390;2023-07-08T10:16:43;2.58;;;1.92;;
22131;SDS011;11232;51.748;19.390;2023-07-08T10:19:13;2.80;;;2.20;;
22131;SDS011;11232;51.748;19.390;2023-07-08T10:26:37;3.33;;;2.10;;
22131;SDS011;11232;51.748;19.390;2023-07-08T10:34:39;2.50;;;1.90;;
22131;SDS011;11232;51.748;19.390;2023-07-08T10:52:28;3.60;;;1.90;;
22131;SDS011;11232;51.748;19.390;2023-07-08T10:55:02;3.05;;;2.10;;
22131;SDS011;11232;51.748;19.390;2023-07-08T11:05:41;3.22;;;2.30;;
22131;SDS011;11232;51.748;19.390;2023-07-08T11:08:19;6.93;;;2.22;;
22131;SDS011;11232;51.748;19.390;2023-07-08T11:13:14;2.85;;;1.90;;
22131;SDS011;11232;51.748;19.390;2023-07-08T11:15:46;3.05;;;2.20;;
22131;SDS011;11232;51.748;19.390;2023-07-08T11:28:54;3.15;;;2.22;;
22131;SDS011;11232;51.748;19.390;2023-07-08T11:31:22;2.83;;;2.22;;
22131;SDS011;11232;51.748;19.390;2023-07-08T11:33:48;4.13;;;2.10;;
22131;SDS011;11232;51.748;19.390;2023-07-08T11:36:15;2.40;;;2.20;;
22131;SDS011;11232;51.748;19.390;2023-07-08T11:38:48;3.17;;;1.88;;
22131;SDS011;11232;51.748;19.390;2023-07-08T11:41:16;3.45;;;2.15;;
22131;SDS011;11232;51.748;19.390;2023-07-08T11:43:49;5.03;;;2.00;;
22131;SDS011;11232;51.748;19.390;2023-07-08T11:46:18;3.38;;;2.08;;
22131;SDS011;11232;51.748;19.390;2023-07-08T11:48:48;2.08;;;1.92;;
22131;SDS011;11232;51.748;19.390;2023-07-08T11:51:20;2.05;;;1.85;;
22131;SDS011;11232;51.748;19.390;2023-07-08T11:53:58;4.40;;;2.20;;
22131;SDS011;11232;51.748;19.390;2023-07-08T11:56:27;3.80;;;2.40;;
22131;SDS011;11232;51.748;19.390;2023-07-08T12:03:59;2.83;;;2.10;;
22131;SDS011;11232;51.748;19.390;2023-07-08T12:08:52;4.45;;;2.00;;
22131;SDS011;11232;51.748;19.390;2023-07-08T12:11:19;2.33;;;2.00;;
22131;SDS011;11232;51.748;19.390;2023-07-08T12:13:50;2.67;;;2.30;;
22131;SDS011;11232;51.748;19.390;2023-07-08T12:16:16;2.78;;;2.33;;
22131;SDS011;11232;51.748;19.390;2023-07-08T12:18:42;5.50;;;2.08;;
22131;SDS011;11232;51.748;19.390;2023-07-08T12:21:11;3.97;;;2.20;;
22131;SDS011;11232;51.748;19.390;2023-07-08T12:23:37;2.75;;;2.17;;
22131;SDS011;11232;51.748;19.390;2023-07-08T12:26:09;2.25;;;2.08;;
22131;SDS011;11232;51.748;19.390;2023-07-08T12:28:36;2.15;;;2.00;;
22131;SDS011;11232;51.748;19.390;2023-07-08T12:31:02;5.55;;;2.10;;
22131;SDS011;11232;51.748;19.390;2023-07-08T12:33:29;2.67;;;2.40;;
22131;SDS011;11232;51.748;19.390;2023-07-08T12:35:56;2.17;;;2.00;;
22131;SDS011;11232;51.748;19.390;2023-07-08T12:40:49;3.25;;;2.42;;
22131;SDS011;11232;51.748;19.390;2023-07-08T12:43:15;3.53;;;2.20;;
22131;SDS011;11232;51.748;19.390;2023-07-08T12:45:44;3.28;;;2.30;;
22131;SDS011;11232;51.748;19.390;2023-07-08T12:48:10;2.40;;;2.20;;
22131;SDS011;11232;51.748;19.390;2023-07-08T12:50:36;4.78;;;2.13;;
22131;SDS011;11232;51.748;19.390;2023-07-08T12:53:03;3.47;;;2.45;;
22131;SDS011;11232;51.748;19.390;2023-07-08T12:55:34;3.75;;;2.20;;
22131;SDS011;11232;51.748;19.390;2023-07-08T12:58:00;3.35;;;2.30;;
22131;SDS011;11232;51.748;19.390;2023-07-08T13:00:28;4.05;;;2.70;;
22131;SDS011;11232;51.748;19.390;2023-07-08T13:02:56;3.50;;;2.50;;
22131;SDS011;11232;51.748;19.390;2023-07-08T13:05:23;3.47;;;2.53;;
22131;SDS011;11232;51.748;19.390;2023-07-08T13:07:49;3.17;;;2.42;;
22131;SDS011;11232;51.748;19.390;2023-07-08T13:10:20;2.45;;;2.25;;
22131;SDS011;11232;51.748;19.390;2023-07-08T13:12:47;2.58;;;2.38;;
22131;SDS011;11232;51.748;19.390;2023-07-08T13:15:17;3.40;;;2.25;;
22131;SDS011;11232;51.748;19.390;2023-07-08T13:17:45;3.72;;;2.25;;
22131;SDS011;11232;51.748;19.390;2023-07-08T13:20:14;2.35;;;2.15;;
22131;SDS011;11232;51.748;19.390;2023-07-08T13:22:41;4.10;;;2.40;;
22131;SDS011;11232;51.748;19.390;2023-07-08T13:25:14;4.95;;;2.80;;
22131;SDS011;11232;51.748;19.390;2023-07-08T13:27:41;5.50;;;2.30;;
22131;SDS011;11232;51.748;19.390;2023-07-08T13:30:17;2.70;;;2.50;;
22131;SDS011;11232;51.748;19.390;2023-07-08T13:32:44;3.97;;;2.85;;
22131;SDS011;11232;51.748;19.390;2023-07-08T13:38:18;3.20;;;2.33;;
22131;SDS011;11232;51.748;19.390;2023-07-08T13:40:45;2.65;;;2.45;;
22131;SDS011;11232;51.748;19.390;2023-07-08T13:43:12;3.13;;;2.60;;
22131;SDS011;11232;51.748;19.390;2023-07-08T13:45:39;2.83;;;2.63;;
22131;SDS011;11232;51.748;19.390;2023-07-08T13:48:13;4.75;;;2.70;;
22131;SDS011;11232;51.748;19.390;2023-07-08T13:50:43;3.95;;;2.55;;
22131;SDS011;11232;51.748;19.390;2023-07-08T13:53:19;3.33;;;2.67;;
22131;SDS011;11232;51.748;19.390;2023-07-08T13:55:45;2.72;;;2.53;;
22131;SDS011;11232;51.748;19.390;2023-07-08T13:58:14;2.72;;;2.47;;
22131;SDS011;11232;51.748;19.390;2023-07-08T14:00:40;4.20;;;2.60;;
22131;SDS011;11232;51.748;19.390;2023-07-08T14:03:12;4.97;;;2.63;;
22131;SDS011;11232;51.748;19.390;2023-07-08T14:05:40;4.00;;;2.58;;
22131;SDS011;11232;51.748;19.390;2023-07-08T14:08:24;2.58;;;2.38;;
22131;SDS011;11232;51.748;19.390;2023-07-08T14:10:50;3.33;;;2.42;;
22131;SDS011;11232;51.748;19.390;2023-07-08T14:13:16;3.33;;;2.50;;
22131;SDS011;11232;51.748;19.390;2023-07-08T14:15:42;2.85;;;2.47;;
22131;SDS011;11232;51.748;19.390;2023-07-08T14:18:09;3.13;;;2.60;;
22131;SDS011;11232;51.748;19.390;2023-07-08T14:20:35;4.47;;;2.33;;
22131;SDS011;11232;51.748;19.390;2023-07-08T14:23:02;2.50;;;2.30;;
22131;SDS011;11232;51.748;19.390;2023-07-08T14:25:28;3.50;;;2.78;;
22131;SDS011;11232;51.748;19.390;2023-07-08T14:27:54;2.60;;;2.40;;
22131;SDS011;11232;51.748;19.390;2023-07-08T14:30:20;2.88;;;2.40;;
22131;SDS011;11232;51.748;19.390;2023-07-08T14:32:47;2.85;;;2.63;;
22131;SDS011;11232;51.748;19.390;2023-07-08T14:35:15;4.30;;;2.75;;
22131;SDS011;11232;51.748;19.390;2023-07-08T14:37:41;3.58;;;2.70;;
22131;SDS011;11232;51.748;19.390;2023-07-08T14:42:45;3.03;;;2.70;;
22131;SDS011;11232;51.748;19.390;2023-07-08T14:45:11;4.25;;;2.95;;
22131;SDS011;11232;51.748;19.390;2023-07-08T14:47:37;2.80;;;2.60;;
22131;SDS011;11232;51.748;19.390;2023-07-08T14:50:10;4.03;;;2.80;;
22131;SDS011;11232;51.748;19.390;2023-07-08T14:52:37;3.25;;;2.70;;
22131;SDS011;11232;51.748;19.390;2023-07-08T14:55:03;3.10;;;2.78;;
22131;SDS011;11232;51.748;19.390;2023-07-08T14:57:30;4.63;;;2.65;;
22131;SDS011;11232;51.748;19.390;2023-07-08T14:59:58;3.75;;;2.80;;
22131;SDS011;11232;51.748;19.390;2023-07-08T15:02:24;3.10;;;2.80;;
22131;SDS011;11232;51.748;19.390;2023-07-08T15:04:50;6.00;;;2.85;;
22131;SDS011;11232;51.748;19.390;2023-07-08T15:07:18;3.17;;;2.70;;
22131;SDS011;11232;51.748;19.390;2023-07-08T15:09:44;3.17;;;2.80;;
22131;SDS011;11232;51.748;19.390;2023-07-08T15:12:11;5.28;;;2.85;;
22131;SDS011;11232;51.748;19.390;2023-07-08T15:14:37;4.03;;;2.83;;
22131;SDS011;11232;51.748;19.390;2023-07-08T15:17:08;3.78;;;2.60;;
22131;SDS011;11232;51.748;19.390;2023-07-08T15:19:35;2.80;;;2.60;;
22131;SDS011;11232;51.748;19.390;2023-07-08T15:22:01;2.80;;;2.58;;
22131;SDS011;11232;51.748;19.390;2023-07-08T15:24:27;3.00;;;2.70;;
22131;SDS011;11232;51.748;19.390;2023-07-08T15:26:53;3.08;;;2.75;;
22131;SDS011;11232;51.748;19.390;2023-07-08T15:29:20;4.25;;;2.70;;
22131;SDS011;11232;51.748;19.390;2023-07-08T15:31:47;4.72;;;3.35;;
22131;SDS011;11232;51.748;19.390;2023-07-08T15:34:14;3.92;;;2.60;;
22131;SDS011;11232;51.748;19.390;2023-07-08T15:36:41;3.65;;;2.90;;
22131;SDS011;11232;51.748;19.390;2023-07-08T15:39:07;5.85;;;2.90;;
22131;SDS011;11232;51.748;19.390;2023-07-08T15:41:34;4.53;;;2.97;;
22131;SDS011;11232;51.748;19.390;2023-07-08T15:44:00;2.97;;;2.65;;
22131;SDS011;11232;51.748;19.390;2023-07-08T15:46:27;4.78;;;2.90;;
22131;SDS011;11232;51.748;19.390;2023-07-08T15:48:54;2.92;;;2.58;;
22131;SDS011;11232;51.748;19.390;2023-07-08T15:51:20;4.43;;;2.78;;